Observation data for Muleshoe on 01/12/2018      Previous  Date  Next       Current Mesonet Observations  Soil Data  Daily Summary Page  Observations in Plain Language
KMUS 120600Z 25002KT M09/M14 A3026 RMK A01 T10911138  RH  068%=      5-min Rain = 0
KMUS 120605Z 25002KT M09/M14 A3026 RMK A01 T10921140  RH  067%=      5-min Rain = 0
KMUS 120610Z 24002KT M09/M14 A3025 RMK A01 T10911136  RH  069%=      5-min Rain = 0
KMUS 120615Z 24002KT M09/M13 A3025 RMK A01 T10891133  RH  070%=      5-min Rain = 0
KMUS 120620Z 22001KT M09/M14 A3025 RMK A01 T10891137  RH  068%=      5-min Rain = 0
KMUS 120625Z 21001KT M09/M14 A3025 RMK A01 T10911138  RH  068%=      5-min Rain = 0
KMUS 120630Z 21001KT M09/M13 A3025 RMK A01 T10901134  RH  070%=      5-min Rain = 0
KMUS 120635Z 26001KT M09/M13 A3025 RMK A01 T10891134  RH  069%=      5-min Rain = 0
KMUS 120640Z 26001KT M09/M14 A3024 RMK A01 T10891136  RH  068%=      5-min Rain = 0
KMUS 120645Z 24001KT M09/M14 A3024 RMK A01 T10911138  RH  068%=      5-min Rain = 0
KMUS 120650Z 21001KT M09/M14 A3024 RMK A01 T10911137  RH  069%=      5-min Rain = 0
KMUS 120655Z 21001KT M09/M14 A3024 RMK A01 T10931140  RH  068%=      5-min Rain = 0
KMUS 120700Z 28001KT M10/M14 A3024 RMK A01 T10951139  RH  070%=      5-min Rain = 0
KMUS 120705Z 28001KT M10/M14 A3024 RMK A01 T10951140  RH  069%=      5-min Rain = 0
KMUS 120710Z 26001KT M10/M14 A3024 RMK A01 T10961140  RH  069%=      5-min Rain = 0
KMUS 120715Z 26002KT M10/M14 A3024 RMK A01 T10951137  RH  071%=      5-min Rain = 0
KMUS 120720Z 23002KT M10/M14 A3024 RMK A01 T10951140  RH  070%=      5-min Rain = 0
KMUS 120725Z 20002KT M10/M14 A3024 RMK A01 T10971140  RH  071%=      5-min Rain = 0
KMUS 120730Z 21002KT M10/M14 A3024 RMK A01 T10981140  RH  071%=      5-min Rain = 0
KMUS 120735Z 22002KT M10/M14 A3024 RMK A01 T10981137  RH  072%=      5-min Rain = 0
KMUS 120740Z 23002KT M10/M14 A3024 RMK A01 T10961136  RH  072%=      5-min Rain = 0
KMUS 120745Z 25002KT M10/M14 A3024 RMK A01 T10951136  RH  071%=      5-min Rain = 0
KMUS 120750Z 25001KT M10/M14 A3024 RMK A01 T10961136  RH  072%=      5-min Rain = 0
KMUS 120755Z 24002KT M09/M14 A3024 RMK A01 T10931135  RH  072%=      5-min Rain = 0
KMUS 120800Z 25002KT M10/M14 A3024 RMK A01 T10971140  RH  070%=      5-min Rain = 0
KMUS 120805Z 25001KT M10/M14 A3024 RMK A01 T10981137  RH  073%=      5-min Rain = 0
KMUS 120810Z 24001KT M09/M13 A3024 RMK A01 T10941131  RH  074%=      5-min Rain = 0
KMUS 120815Z 23002KT M09/M14 A3024 RMK A01 T10941136  RH  071%=      5-min Rain = 0
KMUS 120820Z 22002KT M10/M14 A3024 RMK A01 T10991142  RH  070%=      5-min Rain = 0
KMUS 120825Z 20003KT M10/M14 A3023 RMK A01 T11031143  RH  072%=      5-min Rain = 0
KMUS 120830Z 19003KT M11/M14 A3023 RMK A01 T11051143  RH  073%=      5-min Rain = 0
KMUS 120835Z 19003KT M11/M14 A3023 RMK A01 T11051140  RH  075%=      5-min Rain = 0
KMUS 120840Z 20003KT M10/M13 A3023 RMK A01 T10951125  RH  078%=      5-min Rain = 0
KMUS 120845Z 19003KT M09/M12 A3023 RMK A01 T10871120  RH  076%=      5-min Rain = 0
KMUS 120850Z 19003KT M09/M12 A3023 RMK A01 T10851120  RH  075%=      5-min Rain = 0
KMUS 120855Z 19005KT M09/M12 A3022 RMK A01 T10851121  RH  074%=      5-min Rain = 0
KMUS 120900Z 19005KT M09/M12 A3022 RMK A01 T10861122  RH  074%=      5-min Rain = 0
KMUS 120905Z 19005KT M09/M12 A3022 RMK A01 T10851120  RH  075%=      5-min Rain = 0
KMUS 120910Z 19005KT M08/M11 A3021 RMK A01 T10801114  RH  076%=      5-min Rain = 0
KMUS 120915Z 19006KT M08/M11 A3021 RMK A01 T10761112  RH  075%=      5-min Rain = 0
KMUS 120920Z 19006KT M08/M12 A3021 RMK A01 T10771115  RH  074%=      5-min Rain = 0
KMUS 120925Z 19006KT M08/M11 A3021 RMK A01 T10771114  RH  074%=      5-min Rain = 0
KMUS 120930Z 20006KT M07/M11 A3021 RMK A01 T10731112  RH  074%=      5-min Rain = 0
KMUS 120935Z 20007KT M07/M11 A3021 RMK A01 T10731114  RH  072%=      5-min Rain = 0
KMUS 120940Z 20007KT M08/M12 A3021 RMK A01 T10761116  RH  073%=      5-min Rain = 0
KMUS 120945Z 20007KT M08/M12 A302 RMK A01 T10801119  RH  073%=      5-min Rain = 0
KMUS 120950Z 21006KT M08/M12 A3021 RMK A01 T10821119  RH  075%=      5-min Rain = 0
KMUS 120955Z 23005KT M08/M12 A3021 RMK A01 T10841120  RH  075%=      5-min Rain = 0
KMUS 121000Z 23006KT M09/M12 A3021 RMK A01 T10851120  RH  075%=      5-min Rain = 0
KMUS 121005Z 22005KT M09/M12 A3021 RMK A01 T10851120  RH  076%=      5-min Rain = 0
KMUS 121010Z 20006KT M08/M12 A3021 RMK A01 T10831117  RH  076%=      5-min Rain = 0
KMUS 121015Z 21005KT M08/M12 A3021 RMK A01 T10831119  RH  075%=      5-min Rain = 0
KMUS 121020Z 21005KT M08/M12 A3021 RMK A01 T10831118  RH  075%=      5-min Rain = 0
KMUS 121025Z 21005KT M09/M12 A3021 RMK A01 T10851120  RH  075%=      5-min Rain = 0
KMUS 121030Z 20005KT M09/M12 A3021 RMK A01 T10861121  RH  075%=      5-min Rain = 0
KMUS 121035Z 20004KT M09/M12 A302 RMK A01 T10881123  RH  075%=      5-min Rain = 0
KMUS 121040Z 20004KT M09/M12 A302 RMK A01 T10881122  RH  076%=      5-min Rain = 0
KMUS 121045Z 20003KT M09/M12 A302 RMK A01 T10891121  RH  077%=      5-min Rain = 0
KMUS 121050Z 21004KT M09/M12 A302 RMK A01 T10871119  RH  077%=      5-min Rain = 0
KMUS 121055Z 21004KT M09/M12 A3019 RMK A01 T10861118  RH  077%=      5-min Rain = 0
KMUS 121100Z 21004KT M09/M12 A3019 RMK A01 T10861120  RH  076%=      5-min Rain = 0
KMUS 121105Z 21004KT M09/M12 A3019 RMK A01 T10881122  RH  076%=      5-min Rain = 0
KMUS 121110Z 21005KT M09/M12 A3019 RMK A01 T10901123  RH  076%=      5-min Rain = 0
KMUS 121115Z 21005KT M09/M13 A3019 RMK A01 T10931127  RH  076%=      5-min Rain = 0
KMUS 121120Z 23004KT M09/M12 A3018 RMK A01 T10931124  RH  078%=      5-min Rain = 0
KMUS 121125Z 22004KT M09/M13 A3018 RMK A01 T10941125  RH  078%=      5-min Rain = 0
KMUS 121130Z 23004KT M10/M13 A3018 RMK A01 T10951126  RH  078%=      5-min Rain = 0
KMUS 121135Z 22005KT M10/M13 A3018 RMK A01 T10971129  RH  077%=      5-min Rain = 0
KMUS 121140Z 23004KT M10/M13 A3018 RMK A01 T10991129  RH  078%=      5-min Rain = 0
KMUS 121145Z 26002KT M10/M13 A3018 RMK A01 T10991129  RH  078%=      5-min Rain = 0
KMUS 121150Z 29002KT M10/M13 A3018 RMK A01 T11021133  RH  077%=      5-min Rain = 0
KMUS 121155Z 30002KT M11/M14 A3019 RMK A01 T11051136  RH  078%=      5-min Rain = 0
KMUS 121200Z 29002KT M11/M13 A3019 RMK A01 T11071134  RH  079%=      5-min Rain = 0
KMUS 121205Z 29002KT M11/M14 A3019 RMK A01 T11071135  RH  079%=      5-min Rain = 0
KMUS 121210Z 30002KT M11/M14 A3019 RMK A01 T11091136  RH  080%=      5-min Rain = 0
KMUS 121215Z 30001KT M11/M14 A3019 RMK A01 T11111139  RH  079%=      5-min Rain = 0
KMUS 121220Z 22002KT M11/M14 A3019 RMK A01 T11131140  RH  080%=      5-min Rain = 0
KMUS 121225Z 20003KT M11/M14 A3019 RMK A01 T11131138  RH  081%=      5-min Rain = 0
KMUS 121230Z 19004KT M12/M14 A3019 RMK A01 T11151142  RH  080%=      5-min Rain = 0
KMUS 121235Z 20002KT M12/M14 A3019 RMK A01 T11151139  RH  082%=      5-min Rain = 0
KMUS 121240Z 19001KT M11/M12 A3019 RMK A01 T11051124  RH  085%=      5-min Rain = 0
KMUS 121245Z 18004KT M09/M12 A3019 RMK A01 T10911115  RH  083%=      5-min Rain = 0
KMUS 121250Z 18006KT M08/M12 A3018 RMK A01 T10831115  RH  078%=      5-min Rain = 0
KMUS 121255Z 18005KT M08/M11 A3019 RMK A01 T10791111  RH  077%=      5-min Rain = 0
KMUS 121300Z 18005KT M07/M11 A3019 RMK A01 T10721106  RH  077%=      5-min Rain = 0
KMUS 121305Z 18006KT M06/M10 A3019 RMK A01 T10641100  RH  075%=      5-min Rain = 0
KMUS 121310Z 17006KT M06/M10 A3019 RMK A01 T10561099  RH  072%=      5-min Rain = 0
KMUS 121315Z 18007KT M05/M10 A3019 RMK A01 T10491099  RH  068%=      5-min Rain = 0
KMUS 121320Z 18006KT M05/M10 A3019 RMK A01 T10461099  RH  066%=      5-min Rain = 0
KMUS 121325Z 18006KT M04/M10 A3019 RMK A01 T10411099  RH  064%=      5-min Rain = 0
KMUS 121330Z 18006KT M04/M10 A3018 RMK A01 T10391100  RH  063%=      5-min Rain = 0
KMUS 121335Z 19007KT M04/M10 A3018 RMK A01 T10401100  RH  062%=      5-min Rain = 0
KMUS 121340Z 19007KT M04/M10 A3018 RMK A01 T10381100  RH  062%=      5-min Rain = 0
KMUS 121345Z 19008KT M04/M10 A3018 RMK A01 T10351100  RH  061%=      5-min Rain = 0
KMUS 121350Z 19007KT M04/M10 A3018 RMK A01 T10351100  RH  060%=      5-min Rain = 0
KMUS 121355Z 20008KT M03/M10 A3018 RMK A01 T10341101  RH  060%=      5-min Rain = 0
KMUS 121400Z 21006KT M03/M10 A3018 RMK A01 T10331101  RH  059%=      5-min Rain = 0
KMUS 121405Z 23005KT M03/M10 A3018 RMK A01 T10341102  RH  059%=      5-min Rain = 0
KMUS 121410Z 21005G11KT M04/M10 A3019 RMK A01 T10361102  RH  060%=      5-min Rain = 0
KMUS 121415Z 20008KT M04/M10 A3019 RMK A01 T10351102  RH  059%=      5-min Rain = 0
KMUS 121420Z 20005KT M04/M10 A3019 RMK A01 T10351102  RH  059%=      5-min Rain = 0
KMUS 121425Z 20006KT M04/M10 A3019 RMK A01 T10361102  RH  060%=      5-min Rain = 0
KMUS 121430Z 19005KT M03/M10 A3019 RMK A01 T10331100  RH  059%=      5-min Rain = 0
KMUS 121435Z 20006KT M03/M10 A302 RMK A01 T10271099  RH  058%=      5-min Rain = 0
KMUS 121440Z 19005KT M02/M10 A302 RMK A01 T10231098  RH  056%=      5-min Rain = 0
KMUS 121445Z 19006KT M02/M10 A302 RMK A01 T10191097  RH  055%=      5-min Rain = 0
KMUS 121450Z 20006KT M02/M10 A302 RMK A01 T10171098  RH  054%=      5-min Rain = 0
KMUS 121455Z 20007KT M02/M10 A3021 RMK A01 T10161098  RH  053%=      5-min Rain = 0
KMUS 121500Z 20006KT M01/M10 A3021 RMK A01 T10131097  RH  053%=      5-min Rain = 0
KMUS 121505Z 20006G12KT M01/M10 A3021 RMK A01 T10091097  RH  051%=      5-min Rain = 0
KMUS 121510Z 20006G11KT M01/M10 A3021 RMK A01 T10051097  RH  050%=      5-min Rain = 0
KMUS 121515Z 20009KT M00/M10 A3021 RMK A01 T10011098  RH  048%=      5-min Rain = 0
KMUS 121520Z 20008G13KT 00/M10 A3021 RMK A01 T00011097  RH  047%=      5-min Rain = 0
KMUS 121525Z 19012KT 01/M10 A3021 RMK A01 T00051098  RH  046%=      5-min Rain = 0
KMUS 121530Z 18012G17KT 01/M10 A302 RMK A01 T00081099  RH  045%=      5-min Rain = 0
KMUS 121535Z 18014KT 01/M10 A3019 RMK A01 T00091100  RH  044%=      5-min Rain = 0
KMUS 121540Z 18013KT 01/M10 A302 RMK A01 T00081101  RH  044%=      5-min Rain = 0
KMUS 121545Z 18014G19KT 01/M10 A302 RMK A01 T00101102  RH  043%=      5-min Rain = 0
KMUS 121550Z 18014G19KT 01/M10 A3019 RMK A01 T00141102  RH  041%=      5-min Rain = 0
KMUS 121555Z 19015G20KT 02/M10 A3019 RMK A01 T00171104  RH  040%=      5-min Rain = 0
KMUS 121600Z 19018G23KT 02/M11 A3019 RMK A01 T00191107  RH  039%=      5-min Rain = 0
KMUS 121605Z 19017G22KT 02/M11 A3019 RMK A01 T00191106  RH  039%=      5-min Rain = 0
KMUS 121610Z 19016G21KT 02/M10 A3019 RMK A01 T00211104  RH  039%=      5-min Rain = 0
KMUS 121615Z 19016G22KT 03/M10 A3019 RMK A01 T00251102  RH  038%=      5-min Rain = 0
KMUS 121620Z 19017G23KT 03/M10 A3019 RMK A01 T00291103  RH  037%=      5-min Rain = 0
KMUS 121625Z 19018G24KT 03/M10 A3018 RMK A01 T00301102  RH  037%=      5-min Rain = 0
KMUS 121630Z 19017G22KT 04/M10 A3018 RMK A01 T00361102  RH  035%=      5-min Rain = 0
KMUS 121635Z 19019KT 04/M10 A3018 RMK A01 T00361103  RH  035%=      5-min Rain = 0
KMUS 121640Z 19018G23KT 04/M10 A3017 RMK A01 T00361101  RH  036%=      5-min Rain = 0
KMUS 121645Z 19017G22KT 04/M10 A3017 RMK A01 T00411101  RH  035%=      5-min Rain = 0
KMUS 121650Z 19017G22KT 05/M10 A3017 RMK A01 T00461099  RH  034%=      5-min Rain = 0
KMUS 121655Z 19016G22KT 05/M10 A3016 RMK A01 T00541096  RH  033%=      5-min Rain = 0
KMUS 121700Z 19018KT 06/M10 A3016 RMK A01 T00561097  RH  032%=      5-min Rain = 0
KMUS 121705Z 20016G21KT 06/M09 A3016 RMK A01 T00581093  RH  033%=      5-min Rain = 0
KMUS 121710Z 20016G23KT 06/M09 A3015 RMK A01 T00591091  RH  033%=      5-min Rain = 0
KMUS 121715Z 19016G22KT 06/M09 A3016 RMK A01 T00591091  RH  033%=      5-min Rain = 0
KMUS 121720Z 20015G20KT 06/M09 A3016 RMK A01 T00601087  RH  034%=      5-min Rain = 0
KMUS 121725Z 21014G20KT 07/M09 A3016 RMK A01 T00651086  RH  033%=      5-min Rain = 0
KMUS 121730Z 20013G20KT 07/M08 A3017 RMK A01 T00701084  RH  033%=      5-min Rain = 0
KMUS 121735Z 21013G20KT 07/M08 A3016 RMK A01 T00711083  RH  032%=      5-min Rain = 0
KMUS 121740Z 21013G19KT 07/M08 A3016 RMK A01 T00721083  RH  032%=      5-min Rain = 0
KMUS 121745Z 21012G18KT 08/M08 A3016 RMK A01 T00751081  RH  032%=      5-min Rain = 0
KMUS 121750Z 21012G19KT 08/M08 A3015 RMK A01 T00781081  RH  031%=      5-min Rain = 0
KMUS 121755Z 20012KT 08/M08 A3015 RMK A01 T00801080  RH  031%=      5-min Rain = 0
KMUS 121800Z 20012KT 08/M08 A3014 RMK A01 T00831079  RH  031%=      5-min Rain = 0
KMUS 121805Z 20013KT 09/M08 A3013 RMK A01 T00871077  RH  030%=      5-min Rain = 0
KMUS 121810Z 22012G17KT 09/M07 A3013 RMK A01 T00911071  RH  031%=      5-min Rain = 0
KMUS 121815Z 21011G17KT 10/M07 A3013 RMK A01 T00961070  RH  030%=      5-min Rain = 0
KMUS 121820Z 22012G18KT 10/M07 A3012 RMK A01 T00991066  RH  031%=      5-min Rain = 0
KMUS 121825Z 21009G15KT 10/M07 A3012 RMK A01 T01041066  RH  030%=      5-min Rain = 0
KMUS 121830Z 21012G17KT 10/M07 A3011 RMK A01 T01041066  RH  030%=      5-min Rain = 0
KMUS 121835Z 20012G17KT 11/M07 A301 RMK A01 T01071068  RH  029%=      5-min Rain = 0
KMUS 121840Z 19011KT 11/M07 A301 RMK A01 T01071071  RH  028%=      5-min Rain = 0
KMUS 121845Z 19011KT 11/M07 A301 RMK A01 T01081071  RH  028%=      5-min Rain = 0
KMUS 121850Z 19012G18KT 11/M07 A3009 RMK A01 T01131067  RH  028%=      5-min Rain = 0
KMUS 121855Z 19010G16KT 12/M07 A3009 RMK A01 T01171065  RH  028%=      5-min Rain = 0
KMUS 121900Z 23012G18KT 12/M06 A3009 RMK A01 T01231058  RH  028%=      5-min Rain = 0
KMUS 121905Z 22011G16KT 12/M06 A3009 RMK A01 T01241057  RH  028%=      5-min Rain = 0
KMUS 121910Z 23010KT 12/M06 A3009 RMK A01 T01241056  RH  028%=      5-min Rain = 0
KMUS 121915Z 22010KT 12/M06 A3008 RMK A01 T01241055  RH  028%=      5-min Rain = 0
KMUS 121920Z 23011KT 13/M06 A3008 RMK A01 T01251055  RH  028%=      5-min Rain = 0
KMUS 121925Z 25010KT 13/M05 A3008 RMK A01 T01281054  RH  028%=      5-min Rain = 0
KMUS 121930Z 24009KT 13/M06 A3007 RMK A01 T01301055  RH  027%=      5-min Rain = 0
KMUS 121935Z 23009G14KT 13/M06 A3007 RMK A01 T01341061  RH  025%=      5-min Rain = 0
KMUS 121940Z 25009KT 14/M06 A3006 RMK A01 T01371063  RH  025%=      5-min Rain = 0
KMUS 121945Z 27009G15KT 14/M06 A3006 RMK A01 T01381063  RH  024%=      5-min Rain = 0
KMUS 121950Z 24009KT 14/M06 A3006 RMK A01 T01391062  RH  024%=      5-min Rain = 0
KMUS 121955Z 22007G12KT 14/M06 A3006 RMK A01 T01401061  RH  024%=      5-min Rain = 0
KMUS 122000Z 24007KT 14/M06 A3006 RMK A01 T01401061  RH  024%=      5-min Rain = 0
KMUS 122005Z 25008KT 14/M06 A3005 RMK A01 T01421061  RH  024%=      5-min Rain = 0
KMUS 122010Z 26007KT 14/M06 A3005 RMK A01 T01431061  RH  024%=      5-min Rain = 0
KMUS 122015Z 27005G11KT 15/M06 A3005 RMK A01 T01471061  RH  023%=      5-min Rain = 0
KMUS 122020Z 24008KT 15/M06 A3005 RMK A01 T01471063  RH  023%=      5-min Rain = 0
KMUS 122025Z 24006G12KT 15/M06 A3005 RMK A01 T01461063  RH  023%=      5-min Rain = 0
KMUS 122030Z 25008KT 15/M07 A3005 RMK A01 T01511066  RH  022%=      5-min Rain = 0
KMUS 122035Z 26008KT 15/M06 A3004 RMK A01 T01521064  RH  022%=      5-min Rain = 0
KMUS 122040Z 27007KT 15/M06 A3004 RMK A01 T01541064  RH  022%=      5-min Rain = 0
KMUS 122045Z 27007G12KT 15/M07 A3004 RMK A01 T01531065  RH  022%=      5-min Rain = 0
KMUS 122050Z 26007KT 16/M07 A3004 RMK A01 T01551066  RH  021%=      5-min Rain = 0
KMUS 122055Z 25007KT 16/M07 A3004 RMK A01 T01581066  RH  021%=      5-min Rain = 0
KMUS 122100Z 26008KT 16/M07 A3004 RMK A01 T01571066  RH  021%=      5-min Rain = 0
KMUS 122105Z 28005KT 16/M07 A3004 RMK A01 T01591066  RH  021%=      5-min Rain = 0
KMUS 122110Z 24005KT 16/M07 A3004 RMK A01 T01591065  RH  021%=      5-min Rain = 0
KMUS 122115Z 24004KT 16/M07 A3004 RMK A01 T01601066  RH  021%=      5-min Rain = 0
KMUS 122120Z 28004KT 16/M07 A3004 RMK A01 T01601066  RH  020%=      5-min Rain = 0
KMUS 122125Z 23005KT 16/M07 A3004 RMK A01 T01601067  RH  020%=      5-min Rain = 0
KMUS 122130Z 24002KT 16/M07 A3004 RMK A01 T01601066  RH  021%=      5-min Rain = 0
KMUS 122135Z 22002KT 17/M07 A3004 RMK A01 T01671066  RH  020%=      5-min Rain = 0
KMUS 122140Z 20002KT 16/M07 A3003 RMK A01 T01641067  RH  020%=      5-min Rain = 0
KMUS 122145Z 17003KT 17/M07 A3003 RMK A01 T01661066  RH  020%=      5-min Rain = 0
KMUS 122150Z 23004KT 17/M07 A3003 RMK A01 T01651067  RH  020%=      5-min Rain = 0
KMUS 122155Z 22002KT 16/M07 A3003 RMK A01 T01641068  RH  020%=      5-min Rain = 0
KMUS 122200Z 19002KT 16/M07 A3004 RMK A01 T01631069  RH  020%=      5-min Rain = 0
KMUS 122205Z 13002KT 16/M07 A3004 RMK A01 T01641067  RH  020%=      5-min Rain = 0
KMUS 122210Z 13003KT 17/M07 A3004 RMK A01 T01651066  RH  020%=      5-min Rain = 0
KMUS 122215Z 11003KT 17/M07 A3004 RMK A01 T01661067  RH  020%=      5-min Rain = 0
KMUS 122220Z 11004KT 17/M07 A3004 RMK A01 T01651067  RH  020%=      5-min Rain = 0
KMUS 122225Z 11005KT 17/M07 A3004 RMK A01 T01661068  RH  020%=      5-min Rain = 0
KMUS 122230Z 11006KT 17/M07 A3004 RMK A01 T01651067  RH  020%=      5-min Rain = 0
KMUS 122235Z 14003KT 17/M07 A3005 RMK A01 T01661067  RH  020%=      5-min Rain = 0
KMUS 122240Z 12005KT 17/M07 A3005 RMK A01 T01671067  RH  019%=      5-min Rain = 0
KMUS 122245Z 16005KT 17/M07 A3005 RMK A01 T01661068  RH  019%=      5-min Rain = 0
KMUS 122250Z 15003KT 17/M07 A3005 RMK A01 T01671067  RH  019%=      5-min Rain = 0
KMUS 122255Z 16005KT 17/M06 A3005 RMK A01 T01681064  RH  020%=      5-min Rain = 0
KMUS 122300Z 17007KT 17/M06 A3005 RMK A01 T01651063  RH  020%=      5-min Rain = 0
KMUS 122305Z 16006G11KT 16/M06 A3006 RMK A01 T01611063  RH  021%=      5-min Rain = 0
KMUS 122310Z 14010G15KT 15/M07 A3006 RMK A01 T01531067  RH  021%=      5-min Rain = 0
KMUS 122315Z 13013G21KT 14/M07 A3005 RMK A01 T01431073  RH  022%=      5-min Rain = 0
KMUS 122320Z 14014G20KT 14/M08 A3006 RMK A01 T01351077  RH  022%=      5-min Rain = 0
KMUS 122325Z 14012G18KT 13/M08 A3006 RMK A01 T01301078  RH  023%=      5-min Rain = 0
KMUS 122330Z 14014KT 13/M08 A3007 RMK A01 T01251080  RH  023%=      5-min Rain = 0
KMUS 122335Z 14012KT 12/M08 A3007 RMK A01 T01211080  RH  024%=      5-min Rain = 0
KMUS 122340Z 14012G17KT 12/M08 A3007 RMK A01 T01191081  RH  024%=      5-min Rain = 0
KMUS 122345Z 14012KT 12/M08 A3008 RMK A01 T01151082  RH  024%=      5-min Rain = 0
KMUS 122350Z 14012KT 11/M08 A3008 RMK A01 T01121082  RH  025%=      5-min Rain = 0
KMUS 122355Z 14011KT 11/M08 A3008 RMK A01 T01081082  RH  025%=      5-min Rain = 0
KMUS 130000Z 14011KT 10/M08 A3009 RMK A01 T01041083  RH  026%=      5-min Rain = 0
KMUS 130005Z 15010KT 10/M08 A3009 RMK A01 T00991083  RH  027%=      5-min Rain = 0
KMUS 130010Z 14011KT 10/M08 A3009 RMK A01 T00951084  RH  027%=      5-min Rain = 0
KMUS 130015Z 13010KT 09/M09 A3009 RMK A01 T00921087  RH  027%=      5-min Rain = 0
KMUS 130020Z 13009KT 09/M09 A301 RMK A01 T00871088  RH  028%=      5-min Rain = 0
KMUS 130025Z 14010KT 08/M09 A301 RMK A01 T00831087  RH  029%=      5-min Rain = 0
KMUS 130030Z 15010KT 08/M09 A301 RMK A01 T00791087  RH  030%=      5-min Rain = 0
KMUS 130035Z 16009KT 08/M09 A301 RMK A01 T00751088  RH  030%=      5-min Rain = 0
KMUS 130040Z 16009KT 07/M09 A3011 RMK A01 T00721088  RH  031%=      5-min Rain = 0
KMUS 130045Z 15008KT 07/M09 A3011 RMK A01 T00691088  RH  032%=      5-min Rain = 0
KMUS 130050Z 14009KT 07/M09 A3011 RMK A01 T00671089  RH  032%=      5-min Rain = 0
KMUS 130055Z 13008KT 07/M09 A3012 RMK A01 T00661090  RH  032%=      5-min Rain = 0
KMUS 130100Z 09008KT 06/M09 A3013 RMK A01 T00611092  RH  032%=      5-min Rain = 0
KMUS 130105Z 08009KT 05/M09 A3014 RMK A01 T00541093  RH  033%=      5-min Rain = 0
KMUS 130110Z 09008KT 05/M09 A3015 RMK A01 T00491094  RH  035%=      5-min Rain = 0
KMUS 130115Z 06011KT 05/M09 A3016 RMK A01 T00471093  RH  035%=      5-min Rain = 0
KMUS 130120Z 08011KT 05/M09 A3016 RMK A01 T00461094  RH  035%=      5-min Rain = 0
KMUS 130125Z 08010KT 05/M09 A3017 RMK A01 T00471094  RH  035%=      5-min Rain = 0
KMUS 130130Z 08009KT 05/M09 A3017 RMK A01 T00451094  RH  035%=      5-min Rain = 0
KMUS 130135Z 09008KT 04/M09 A3018 RMK A01 T00411093  RH  037%=      5-min Rain = 0
KMUS 130140Z 08008KT 04/M09 A3018 RMK A01 T00351092  RH  039%=      5-min Rain = 0
KMUS 130145Z 08009KT 03/M09 A3019 RMK A01 T00311092  RH  040%=      5-min Rain = 0
KMUS 130150Z 06010KT 03/M09 A302 RMK A01 T00311092  RH  040%=      5-min Rain = 0
KMUS 130155Z 08010KT 03/M09 A302 RMK A01 T00301093  RH  040%=      5-min Rain = 0
KMUS 130200Z 08008KT 03/M09 A302 RMK A01 T00291093  RH  040%=      5-min Rain = 0
KMUS 130205Z 08008KT 03/M09 A3021 RMK A01 T00251094  RH  041%=      5-min Rain = 0
KMUS 130210Z 08009KT 02/M10 A3022 RMK A01 T00221095  RH  042%=      5-min Rain = 0
KMUS 130215Z 08008KT 02/M09 A3023 RMK A01 T00231094  RH  041%=      5-min Rain = 0
KMUS 130220Z 09012G17KT 03/M09 A3023 RMK A01 T00301093  RH  040%=      5-min Rain = 0
KMUS 130225Z 08011KT 04/M09 A3024 RMK A01 T00401094  RH  037%=      5-min Rain = 0
KMUS 130230Z 07010G15KT 03/M09 A3025 RMK A01 T00341093  RH  039%=      5-min Rain = 0
KMUS 130235Z 07011KT 03/M09 A3026 RMK A01 T00331094  RH  039%=      5-min Rain = 0
KMUS 130240Z 08009KT 03/M09 A3026 RMK A01 T00301094  RH  040%=      5-min Rain = 0
KMUS 130245Z 09009KT 03/M09 A3026 RMK A01 T00301093  RH  040%=      5-min Rain = 0
KMUS 130250Z 09009KT 03/M09 A3026 RMK A01 T00301093  RH  040%=      5-min Rain = 0
KMUS 130255Z 08009KT 03/M09 A3027 RMK A01 T00271094  RH  041%=      5-min Rain = 0
KMUS 130300Z 09008KT 03/M09 A3027 RMK A01 T00251093  RH  041%=      5-min Rain = 0
KMUS 130305Z 09008KT 02/M09 A3028 RMK A01 T00231093  RH  042%=      5-min Rain = 0
KMUS 130310Z 08008KT 02/M09 A3028 RMK A01 T00201093  RH  043%=      5-min Rain = 0
KMUS 130315Z 09008KT 02/M09 A3029 RMK A01 T00171093  RH  044%=      5-min Rain = 0
KMUS 130320Z 08008KT 01/M09 A3029 RMK A01 T00141093  RH  045%=      5-min Rain = 0
KMUS 130325Z 08011KT 02/M09 A3029 RMK A01 T00151093  RH  044%=      5-min Rain = 0
KMUS 130330Z 09009KT 02/M09 A303 RMK A01 T00171093  RH  044%=      5-min Rain = 0
KMUS 130335Z 09007KT 01/M09 A303 RMK A01 T00131094  RH  044%=      5-min Rain = 0
KMUS 130340Z 08007KT 01/M10 A303 RMK A01 T00081095  RH  046%=      5-min Rain = 0
KMUS 130345Z 07008KT 01/M10 A3031 RMK A01 T00061096  RH  046%=      5-min Rain = 0
KMUS 130350Z 08008KT 00/M10 A3031 RMK A01 T00041097  RH  047%=      5-min Rain = 0
KMUS 130355Z 08009KT 00/M10 A3031 RMK A01 T00031097  RH  047%=      5-min Rain = 0
KMUS 130400Z 08009KT 00/M10 A3032 RMK A01 T00031099  RH  046%=      5-min Rain = 0
KMUS 130405Z 07009KT 00/M10 A3033 RMK A01 T00021100  RH  046%=      5-min Rain = 0
KMUS 130410Z 07009KT 00/M10 A3033 RMK A01 T00041102  RH  045%=      5-min Rain = 0
KMUS 130415Z 07009KT 00/M10 A3033 RMK A01 T00031104  RH  044%=      5-min Rain = 0
KMUS 130420Z 08008KT 00/M11 A3034 RMK A01 T00011105  RH  045%=      5-min Rain = 0
KMUS 130425Z 08009KT 00/11 A3034 RMK A01 T00-00-106  RH  045%=      5-min Rain = 0
KMUS 130430Z 09008KT M00/M11 A3034 RMK A01 T10031106  RH  045%=      5-min Rain = 0
KMUS 130435Z 08007KT M01/M11 A3035 RMK A01 T10071107  RH  046%=      5-min Rain = 0
KMUS 130440Z 07007KT M01/M11 A3036 RMK A01 T10101108  RH  047%=      5-min Rain = 0
KMUS 130445Z 06008KT M01/M11 A3037 RMK A01 T10091107  RH  047%=      5-min Rain = 0
KMUS 130450Z 07008KT M01/M11 A3037 RMK A01 T10091108  RH  047%=      5-min Rain = 0
KMUS 130455Z 08008KT M01/M11 A3037 RMK A01 T10091109  RH  046%=      5-min Rain = 0
KMUS 130500Z 08007KT M01/M11 A3037 RMK A01 T10131110  RH  048%=      5-min Rain = 0
KMUS 130505Z 07007KT M02/M11 A3037 RMK A01 T10161109  RH  049%=      5-min Rain = 0
KMUS 130510Z 06008KT M01/M11 A3038 RMK A01 T10141109  RH  048%=      5-min Rain = 0
KMUS 130515Z 06006KT M02/M11 A3038 RMK A01 T10161109  RH  049%=      5-min Rain = 0
KMUS 130520Z 07006KT M02/M11 A3038 RMK A01 T10171109  RH  049%=      5-min Rain = 0
KMUS 130525Z 08006KT M02/M11 A3038 RMK A01 T10221111  RH  050%=      5-min Rain = 0
KMUS 130530Z 08006KT M03/M11 A3038 RMK A01 T10321114  RH  053%=      5-min Rain = 0
KMUS 130535Z 08005KT M04/M12 A3039 RMK A01 T10371115  RH  055%=      5-min Rain = 0
KMUS 130540Z 08004KT M04/M11 A3039 RMK A01 T10391114  RH  056%=      5-min Rain = 0
KMUS 130545Z 09004KT M04/M12 A3039 RMK A01 T10421116  RH  056%=      5-min Rain = 0
KMUS 130550Z 08004KT M04/M12 A304 RMK A01 T10441115  RH  057%=      5-min Rain = 0
KMUS 130555Z 07005KT M05/M12 A304 RMK A01 T10451118  RH  057%=      5-min Rain = 0

Page generated in 0.0369 seconds.